createdAt,value
2022-12-05T00:01:01.196Z,46.92
2022-12-05T00:06:05.224Z,48.60
2022-12-05T00:11:14.332Z,49.58
2022-12-05T00:16:20.450Z,49.53
2022-12-05T00:21:26.804Z,43.25
2022-12-05T00:26:32.384Z,44.67
2022-12-05T00:31:35.520Z,43.45
2022-12-05T00:36:38.725Z,44.97
2022-12-05T00:41:43.672Z,44.97
2022-12-05T00:46:46.564Z,49.42
2022-12-05T00:51:49.481Z,48.17
2022-12-05T00:56:56.230Z,46.53
2022-12-05T01:01:59.342Z,50.47
2022-12-05T01:07:02.235Z,42.67
2022-12-05T01:12:07.329Z,44.70
2022-12-05T01:17:11.269Z,42.47
2022-12-05T01:22:14.227Z,41.83
2022-12-05T01:27:18.906Z,41.83
2022-12-05T01:32:22.004Z,41.55
2022-12-05T01:37:25.083Z,39.47
2022-12-05T01:42:29.452Z,42.67
2022-12-05T01:47:35.925Z,40.65
2022-12-05T01:52:40.266Z,41.22
2022-12-05T01:57:46.366Z,43.28
2022-12-05T02:02:53.612Z,42.15
2022-12-05T02:07:57.908Z,39.53
2022-12-05T02:13:12.195Z,39.25
2022-12-05T02:18:28.034Z,38.13
2022-12-05T02:23:58.318Z,39.47
2022-12-05T02:29:52.510Z,39.97
2022-12-05T02:35:01.257Z,40.97
2022-12-05T02:40:10.751Z,39.40
2022-12-05T02:45:17.485Z,39.92
2022-12-05T02:50:24.770Z,41.00
2022-12-05T02:55:29.533Z,41.38
2022-12-05T03:00:33.100Z,42.05
2022-12-05T03:05:42.176Z,42.15
2022-12-05T03:10:48.286Z,38.50
2022-12-05T03:15:56.176Z,39.47
2022-12-05T03:21:03.369Z,39.47
2022-12-05T03:26:14.408Z,45.50
2022-12-05T03:31:26.664Z,41.50
2022-12-05T03:36:39.348Z,40.15
2022-12-05T03:41:50.701Z,42.08
2022-12-05T03:46:56.457Z,42.03
2022-12-05T03:52:07.337Z,40.47
2022-12-05T03:57:16.176Z,42.45
2022-12-05T04:02:26.046Z,41.83
2022-12-05T04:07:33.793Z,40.40
2022-12-05T04:12:38.649Z,40.20
2022-12-05T04:17:51.960Z,40.05
2022-12-05T04:22:58.347Z,41.13
2022-12-05T04:28:16.746Z,40.25
2022-12-05T04:33:30.340Z,39.80
2022-12-05T04:38:42.341Z,39.70
2022-12-05T04:43:48.253Z,39.83
2022-12-05T04:48:56.105Z,38.50
2022-12-05T04:54:05.525Z,45.07
2022-12-05T04:59:08.510Z,40.65
2022-12-05T05:04:17.645Z,45.90
2022-12-05T05:09:22.130Z,42.40
2022-12-05T05:14:25.855Z,46.05
2022-12-05T05:19:29.061Z,41.65
2022-12-05T05:24:33.511Z,41.83
2022-12-05T05:29:36.510Z,41.83
2022-12-05T05:34:39.471Z,40.78
2022-12-05T05:39:47.429Z,42.38
2022-12-05T05:44:52.520Z,39.88
2022-12-05T05:49:59.334Z,42.40
2022-12-05T05:55:05.204Z,41.60
2022-12-05T06:00:09.645Z,41.65
2022-12-05T06:05:12.676Z,41.03
2022-12-05T06:10:25.006Z,43.42
2022-12-05T06:15:28.094Z,42.03
2022-12-05T06:20:31.195Z,40.03
2022-12-05T06:25:35.774Z,41.72
2022-12-05T06:30:39.706Z,40.75
2022-12-05T06:35:43.225Z,41.97
2022-12-05T06:40:47.757Z,44.05
2022-12-05T06:45:50.834Z,41.50
2022-12-05T06:50:54.838Z,38.42
2022-12-05T06:56:01.392Z,39.42
2022-12-05T07:01:22.531Z,41.50
2022-12-05T07:06:25.571Z,43.25
2022-12-05T07:11:30.343Z,42.33
2022-12-05T07:16:33.735Z,43.75
2022-12-05T07:21:38.099Z,40.42
2022-12-05T07:26:42.644Z,41.25
2022-12-05T07:32:07.717Z,44.85
2022-12-05T07:37:18.203Z,45.08
2022-12-05T07:42:23.101Z,41.78
2022-12-05T07:47:32.856Z,43.15
2022-12-05T07:52:50.434Z,43.17
2022-12-05T07:57:55.040Z,43.38
2022-12-05T08:02:58.228Z,42.20
2022-12-05T08:08:01.470Z,44.70
2022-12-05T08:13:07.960Z,45.28
2022-12-05T08:18:10.914Z,42.45
2022-12-05T08:23:13.968Z,44.70
2022-12-05T08:28:18.433Z,47.08
2022-12-05T08:33:21.500Z,42.92
2022-12-05T08:38:24.593Z,45.15
2022-12-05T08:43:29.395Z,46.67
2022-12-05T08:48:33.569Z,45.88
2022-12-05T08:53:42.467Z,47.42
2022-12-05T08:58:49.053Z,44.25
2022-12-05T09:03:52.238Z,49.38
2022-12-05T09:08:57.569Z,45.15
2022-12-05T09:14:02.887Z,50.97
2022-12-05T09:19:07.105Z,52.13
2022-12-05T09:24:12.243Z,52.55
2022-12-05T09:29:20.723Z,54.33
2022-12-05T09:34:25.970Z,49.72
2022-12-05T09:39:29.463Z,51.15
2022-12-05T09:44:45.672Z,51.20
2022-12-05T09:49:52.707Z,45.10
2022-12-05T09:54:56.722Z,48.97
2022-12-05T10:00:03.645Z,48.28
2022-12-05T10:05:14.506Z,52.05
2022-12-05T10:10:31.331Z,43.70
2022-12-05T10:15:39.302Z,45.63
2022-12-05T10:20:49.722Z,49.03
2022-12-05T10:25:58.678Z,48.38
2022-12-05T10:31:09.135Z,45.33
2022-12-05T10:36:14.218Z,47.90
2022-12-05T10:41:25.510Z,42.55
2022-12-05T10:46:30.781Z,39.65
2022-12-05T10:51:37.672Z,38.65
2022-12-05T10:56:46.067Z,37.83
2022-12-05T11:01:53.366Z,40.08
2022-12-05T11:07:00.313Z,37.47
2022-12-05T11:12:18.831Z,41.65
2022-12-05T11:17:27.556Z,40.30
2022-12-05T11:22:36.053Z,40.25
2022-12-05T11:27:39.005Z,38.67
2022-12-05T11:32:43.365Z,39.47
2022-12-05T11:37:49.318Z,38.45
2022-12-05T11:43:10.054Z,38.35
2022-12-05T11:48:41.109Z,39.25
2022-12-05T11:54:41.717Z,40.55
2022-12-05T12:00:09.003Z,39.47
2022-12-05T12:05:22.256Z,39.20
2022-12-05T12:10:33.973Z,40.42
2022-12-05T12:15:51.943Z,40.10
2022-12-05T12:21:09.910Z,43.65
2022-12-05T12:26:16.529Z,39.60
2022-12-05T12:31:37.268Z,39.63
2022-12-05T12:36:48.277Z,39.80
2022-12-05T12:42:05.370Z,40.65
2022-12-05T12:47:16.416Z,39.72
2022-12-05T12:52:24.904Z,38.47
2022-12-05T12:57:35.512Z,39.25
2022-12-05T13:02:44.729Z,39.47
2022-12-05T13:08:12.456Z,40.47
2022-12-05T13:13:20.362Z,39.35
2022-12-05T13:18:25.151Z,39.33
2022-12-05T13:23:31.911Z,41.53
2022-12-05T13:28:42.067Z,40.72
2022-12-05T13:33:47.513Z,39.25
2022-12-05T13:39:16.143Z,43.90
2022-12-05T13:44:33.287Z,40.70
2022-12-05T13:49:44.486Z,40.83
2022-12-05T13:54:56.687Z,41.63
2022-12-05T14:00:06.294Z,44.85
2022-12-05T14:05:37.174Z,44.72
2022-12-05T14:11:12.217Z,39.30
2022-12-05T14:16:50.492Z,39.30
2022-12-05T14:22:00.178Z,40.03
2022-12-05T14:27:11.722Z,39.92
2022-12-05T14:32:25.296Z,39.40
2022-12-05T14:37:39.121Z,39.42
2022-12-05T14:42:45.302Z,40.85
2022-12-05T14:47:52.993Z,40.78
2022-12-05T14:53:31.315Z,41.35
2022-12-05T14:58:42.637Z,41.42
2022-12-05T15:04:18.598Z,40.15
2022-12-05T15:09:46.047Z,40.45
2022-12-05T15:15:06.476Z,41.92
2022-12-05T15:20:40.741Z,45.47
2022-12-05T15:26:23.756Z,43.00
2022-12-05T15:31:30.519Z,41.78
2022-12-05T15:36:55.110Z,44.92
2022-12-05T15:42:05.943Z,46.38
2022-12-05T15:48:12.328Z,49.00
2022-12-05T15:53:25.911Z,42.55
2022-12-05T15:58:32.745Z,43.45
2022-12-05T16:03:41.825Z,42.17
2022-12-05T16:08:47.193Z,44.83
2022-12-05T16:13:55.605Z,46.00
2022-12-05T16:19:01.022Z,45.47
2022-12-05T16:24:09.107Z,47.63
2022-12-05T16:29:28.115Z,42.38
2022-12-05T16:34:35.095Z,47.38
2022-12-05T16:39:40.780Z,45.42
2022-12-05T16:45:03.411Z,44.13
2022-12-05T16:50:23.324Z,44.97
2022-12-05T16:55:31.103Z,43.53
2022-12-05T17:00:37.359Z,48.17
2022-12-05T17:05:40.322Z,45.35
2022-12-05T17:10:44.861Z,45.38
2022-12-05T17:15:48.123Z,46.65
2022-12-05T17:20:53.371Z,44.00
2022-12-05T17:26:03.898Z,42.90
2022-12-05T17:31:11.727Z,42.70
2022-12-05T17:36:15.090Z,42.35
2022-12-05T17:41:21.262Z,42.38
2022-12-05T17:46:24.830Z,39.70
2022-12-05T17:51:28.886Z,40.15
2022-12-05T17:56:41.253Z,41.08
2022-12-05T18:01:44.205Z,41.17
2022-12-05T18:06:48.162Z,40.85
2022-12-05T18:11:52.513Z,39.72
2022-12-05T18:16:56.753Z,39.78
2022-12-05T18:21:59.793Z,39.22
2022-12-05T18:27:04.161Z,38.95
2022-12-05T18:32:07.681Z,38.60
2022-12-05T18:37:11.998Z,37.97
2022-12-05T18:42:16.316Z,37.92
2022-12-05T18:47:20.454Z,38.05
2022-12-05T18:52:23.400Z,38.80
2022-12-05T18:57:29.040Z,38.08
2022-12-05T19:02:32.058Z,37.80
2022-12-05T19:07:38.093Z,38.05
2022-12-05T19:12:43.439Z,38.08
2022-12-05T19:17:46.465Z,39.45
2022-12-05T19:22:49.522Z,39.00
2022-12-05T19:27:53.830Z,38.08
2022-12-05T19:32:57.806Z,37.30
2022-12-05T19:38:00.806Z,37.92
2022-12-05T19:43:05.440Z,38.03
2022-12-05T19:48:11.326Z,37.13
2022-12-05T19:53:14.221Z,38.28
2022-12-05T19:58:21.532Z,40.13
2022-12-05T20:03:24.452Z,39.28
2022-12-05T20:08:27.420Z,38.17
2022-12-05T20:13:48.088Z,38.53
2022-12-05T20:18:59.261Z,41.38
2022-12-05T20:24:04.949Z,39.55
2022-12-05T20:29:09.570Z,40.53
2022-12-05T20:34:15.091Z,39.55
2022-12-05T20:39:20.111Z,40.58
2022-12-05T20:44:24.400Z,43.17
2022-12-05T20:49:27.322Z,39.08
2022-12-05T20:54:30.253Z,40.45
2022-12-05T20:59:34.690Z,40.70
2022-12-05T21:04:40.465Z,39.35
2022-12-05T21:09:43.464Z,39.08
2022-12-05T21:14:52.437Z,40.35
2022-12-05T21:19:55.333Z,39.33
2022-12-05T21:24:58.275Z,39.67
2022-12-05T21:30:02.537Z,40.28
2022-12-05T21:35:06.233Z,38.90
2022-12-05T21:40:10.945Z,39.08
2022-12-05T21:45:15.637Z,39.95
2022-12-05T21:50:22.661Z,38.67
2022-12-05T21:55:25.554Z,38.75
2022-12-05T22:00:29.842Z,39.03
2022-12-05T22:05:33.177Z,38.13
2022-12-05T22:10:36.197Z,38.20
2022-12-05T22:15:40.566Z,38.35
2022-12-05T22:20:43.505Z,38.60
2022-12-05T22:25:56.746Z,38.40
2022-12-05T22:31:03.811Z,38.70
2022-12-05T22:36:08.619Z,38.13
2022-12-05T22:41:14.165Z,40.22
2022-12-05T22:46:20.081Z,40.58
2022-12-05T22:51:23.804Z,39.50
2022-12-05T22:56:28.189Z,40.60
2022-12-05T23:01:33.861Z,41.88
2022-12-05T23:06:37.759Z,40.80
2022-12-05T23:11:40.881Z,40.08
2022-12-05T23:16:45.362Z,41.47
2022-12-05T23:21:48.425Z,42.10
2022-12-05T23:26:51.434Z,42.65
2022-12-05T23:31:55.878Z,42.13
2022-12-05T23:36:58.925Z,40.85
2022-12-05T23:42:01.949Z,42.45
2022-12-05T23:47:11.440Z,41.33
2022-12-05T23:52:14.498Z,40.35
2022-12-05T23:57:18.009Z,40.72
